sensor_id;sensor_type;location;lat;lon;timestamp;pressure;altitude;pressure_sealevel;temperature;humidity
69153;BME280;56261;51.580;4.578;2023-04-21T00:02:11;101609.97;;;7.83;100.00
69153;BME280;56261;51.580;4.578;2023-04-21T00:04:40;101602.69;;;7.75;100.00
69153;BME280;56261;51.580;4.578;2023-04-21T00:07:05;101606.44;;;7.73;100.00
69153;BME280;56261;51.580;4.578;2023-04-21T00:09:31;101592.88;;;7.66;100.00
69153;BME280;56261;51.580;4.578;2023-04-21T00:11:56;101595.44;;;7.77;100.00
69153;BME280;56261;51.580;4.578;2023-04-21T00:14:22;101592.00;;;7.65;100.00
69153;BME280;56261;51.580;4.578;2023-04-21T00:16:47;101572.84;;;7.62;100.00
69153;BME280;56261;51.580;4.578;2023-04-21T00:19:19;101576.22;;;7.64;100.00
69153;BME280;56261;51.580;4.578;2023-04-21T00:21:45;101584.44;;;7.61;100.00
69153;BME280;56261;51.580;4.578;2023-04-21T00:24:10;101587.00;;;7.72;100.00
69153;BME280;56261;51.580;4.578;2023-04-21T00:26:36;101580.94;;;7.60;100.00
69153;BME280;56261;51.580;4.578;2023-04-21T00:29:01;101588.09;;;7.69;100.00
69153;BME280;56261;51.580;4.578;2023-04-21T00:31:28;101576.53;;;7.71;100.00
69153;BME280;56261;51.580;4.578;2023-04-21T00:33:53;101563.25;;;7.71;100.00
69153;BME280;56261;51.580;4.578;2023-04-21T00:36:19;101566.44;;;7.43;100.00
69153;BME280;56261;51.580;4.578;2023-04-21T00:38:45;101565.06;;;7.39;100.00
69153;BME280;56261;51.580;4.578;2023-04-21T00:41:10;101561.03;;;7.45;100.00
69153;BME280;56261;51.580;4.578;2023-04-21T00:43:36;101563.88;;;7.53;100.00
69153;BME280;56261;51.580;4.578;2023-04-21T00:46:01;101561.78;;;7.57;100.00
69153;BME280;56261;51.580;4.578;2023-04-21T00:48:26;101545.41;;;7.52;100.00
69153;BME280;56261;51.580;4.578;2023-04-21T00:50:52;101548.81;;;7.33;100.00
69153;BME280;56261;51.580;4.578;2023-04-21T00:53:18;101536.47;;;7.22;100.00
69153;BME280;56261;51.580;4.578;2023-04-21T00:55:44;101540.97;;;7.31;100.00
69153;BME280;56261;51.580;4.578;2023-04-21T00:58:10;101541.88;;;7.41;100.00
69153;BME280;56261;51.580;4.578;2023-04-21T01:00:37;101536.38;;;7.33;100.00
69153;BME280;56261;51.580;4.578;2023-04-21T01:03:04;101533.44;;;7.36;100.00
69153;BME280;56261;51.580;4.578;2023-04-21T01:05:30;101526.88;;;7.31;100.00
69153;BME280;56261;51.580;4.578;2023-04-21T01:07:56;101542.66;;;7.32;100.00
69153;BME280;56261;51.580;4.578;2023-04-21T01:10:22;101528.16;;;7.36;100.00
69153;BME280;56261;51.580;4.578;2023-04-21T01:12:47;101523.03;;;7.44;100.00
69153;BME280;56261;51.580;4.578;2023-04-21T01:15:14;101534.03;;;7.40;100.00
69153;BME280;56261;51.580;4.578;2023-04-21T01:17:40;101526.09;;;7.40;100.00
69153;BME280;56261;51.580;4.578;2023-04-21T01:20:08;101513.13;;;7.46;100.00
69153;BME280;56261;51.580;4.578;2023-04-21T01:22:38;101518.09;;;7.30;100.00
69153;BME280;56261;51.580;4.578;2023-04-21T01:25:04;101525.88;;;7.32;100.00
69153;BME280;56261;51.580;4.578;2023-04-21T01:27:31;101520.34;;;7.35;100.00
69153;BME280;56261;51.580;4.578;2023-04-21T01:29:56;101505.78;;;7.29;100.00
69153;BME280;56261;51.580;4.578;2023-04-21T01:32:24;101509.75;;;7.44;100.00
69153;BME280;56261;51.580;4.578;2023-04-21T01:34:50;101509.72;;;7.35;100.00
69153;BME280;56261;51.580;4.578;2023-04-21T01:37:24;101508.22;;;7.42;100.00
69153;BME280;56261;51.580;4.578;2023-04-21T01:39:52;101503.16;;;7.39;100.00
69153;BME280;56261;51.580;4.578;2023-04-21T01:42:22;101513.59;;;7.31;100.00
69153;BME280;56261;51.580;4.578;2023-04-21T01:44:49;101501.69;;;7.25;100.00
69153;BME280;56261;51.580;4.578;2023-04-21T01:47:15;101499.03;;;7.25;100.00
69153;BME280;56261;51.580;4.578;2023-04-21T01:49:41;101498.22;;;7.24;100.00
69153;BME280;56261;51.580;4.578;2023-04-21T01:52:06;101493.88;;;7.23;100.00
69153;BME280;56261;51.580;4.578;2023-04-21T01:54:32;101486.88;;;7.22;100.00
69153;BME280;56261;51.580;4.578;2023-04-21T01:56:57;101476.97;;;7.24;100.00
69153;BME280;56261;51.580;4.578;2023-04-21T01:59:23;101473.63;;;7.22;100.00
69153;BME280;56261;51.580;4.578;2023-04-21T02:01:48;101483.91;;;7.37;100.00
69153;BME280;56261;51.580;4.578;2023-04-21T02:04:14;101478.44;;;7.38;100.00
69153;BME280;56261;51.580;4.578;2023-04-21T02:06:39;101475.22;;;7.35;100.00
69153;BME280;56261;51.580;4.578;2023-04-21T02:09:05;101479.94;;;7.31;100.00
69153;BME280;56261;51.580;4.578;2023-04-21T02:11:31;101469.16;;;7.23;100.00
69153;BME280;56261;51.580;4.578;2023-04-21T02:13:56;101471.09;;;7.21;100.00
69153;BME280;56261;51.580;4.578;2023-04-21T02:16:22;101467.59;;;7.20;100.00
69153;BME280;56261;51.580;4.578;2023-04-21T02:18:54;101456.25;;;7.09;100.00
69153;BME280;56261;51.580;4.578;2023-04-21T02:21:21;101454.81;;;7.04;100.00
69153;BME280;56261;51.580;4.578;2023-04-21T02:23:47;101474.22;;;7.05;100.00
69153;BME280;56261;51.580;4.578;2023-04-21T02:26:12;101459.28;;;7.04;100.00
69153;BME280;56261;51.580;4.578;2023-04-21T02:28:37;101460.13;;;7.04;100.00
69153;BME280;56261;51.580;4.578;2023-04-21T02:31:03;101452.03;;;7.06;100.00
69153;BME280;56261;51.580;4.578;2023-04-21T02:33:29;101450.34;;;7.05;100.00
69153;BME280;56261;51.580;4.578;2023-04-21T02:35:54;101449.63;;;7.03;100.00
69153;BME280;56261;51.580;4.578;2023-04-21T02:38:20;101441.53;;;6.95;100.00
69153;BME280;56261;51.580;4.578;2023-04-21T02:40:45;101437.16;;;6.94;100.00
69153;BME280;56261;51.580;4.578;2023-04-21T02:43:12;101444.88;;;6.97;100.00
69153;BME280;56261;51.580;4.578;2023-04-21T02:45:38;101433.88;;;6.80;100.00
69153;BME280;56261;51.580;4.578;2023-04-21T02:48:03;101460.66;;;6.98;100.00
69153;BME280;56261;51.580;4.578;2023-04-21T02:50:29;101445.91;;;7.05;100.00
69153;BME280;56261;51.580;4.578;2023-04-21T02:52:54;101440.44;;;7.07;100.00
69153;BME280;56261;51.580;4.578;2023-04-21T02:55:20;101443.19;;;6.96;100.00
69153;BME280;56261;51.580;4.578;2023-04-21T02:57:47;101444.41;;;6.92;100.00
69153;BME280;56261;51.580;4.578;2023-04-21T03:00:12;101435.00;;;6.99;100.00
69153;BME280;56261;51.580;4.578;2023-04-21T03:02:38;101437.94;;;7.05;100.00
69153;BME280;56261;51.580;4.578;2023-04-21T03:05:04;101435.16;;;7.07;100.00
69153;BME280;56261;51.580;4.578;2023-04-21T03:07:30;101431.69;;;7.16;100.00
69153;BME280;56261;51.580;4.578;2023-04-21T03:09:56;101429.59;;;7.10;100.00
69153;BME280;56261;51.580;4.578;2023-04-21T03:12:21;101422.72;;;7.07;100.00
69153;BME280;56261;51.580;4.578;2023-04-21T03:14:46;101424.63;;;6.96;100.00
69153;BME280;56261;51.580;4.578;2023-04-21T03:17:12;101428.69;;;7.00;100.00
69153;BME280;56261;51.580;4.578;2023-04-21T03:19:38;101427.72;;;7.01;100.00
69153;BME280;56261;51.580;4.578;2023-04-21T03:22:04;101425.06;;;7.01;100.00
69153;BME280;56261;51.580;4.578;2023-04-21T03:24:30;101414.41;;;6.91;100.00
69153;BME280;56261;51.580;4.578;2023-04-21T03:26:56;101418.69;;;6.82;100.00
69153;BME280;56261;51.580;4.578;2023-04-21T03:29:21;101409.81;;;6.93;100.00
69153;BME280;56261;51.580;4.578;2023-04-21T03:31:47;101405.88;;;6.88;100.00
69153;BME280;56261;51.580;4.578;2023-04-21T03:34:12;101400.72;;;6.86;100.00
69153;BME280;56261;51.580;4.578;2023-04-21T03:36:38;101394.44;;;6.87;100.00
69153;BME280;56261;51.580;4.578;2023-04-21T03:39:03;101396.69;;;6.92;100.00
69153;BME280;56261;51.580;4.578;2023-04-21T03:41:28;101390.81;;;6.88;100.00
69153;BME280;56261;51.580;4.578;2023-04-21T03:43:54;101401.47;;;6.98;100.00
69153;BME280;56261;51.580;4.578;2023-04-21T03:46:20;101393.78;;;6.95;100.00
69153;BME280;56261;51.580;4.578;2023-04-21T03:48:47;101396.97;;;6.89;100.00
69153;BME280;56261;51.580;4.578;2023-04-21T03:51:13;101388.16;;;6.88;100.00
69153;BME280;56261;51.580;4.578;2023-04-21T03:53:38;101388.88;;;6.90;100.00
69153;BME280;56261;51.580;4.578;2023-04-21T03:56:04;101382.19;;;6.96;100.00
69153;BME280;56261;51.580;4.578;2023-04-21T03:58:29;101389.66;;;6.81;100.00
69153;BME280;56261;51.580;4.578;2023-04-21T04:00:55;101381.47;;;6.94;100.00
69153;BME280;56261;51.580;4.578;2023-04-21T04:03:20;101378.84;;;6.94;100.00
69153;BME280;56261;51.580;4.578;2023-04-21T04:05:46;101378.28;;;6.90;100.00
69153;BME280;56261;51.580;4.578;2023-04-21T04:08:11;101388.91;;;7.00;100.00
69153;BME280;56261;51.580;4.578;2023-04-21T04:10:37;101377.31;;;7.01;100.00
69153;BME280;56261;51.580;4.578;2023-04-21T04:13:02;101393.63;;;6.96;100.00
69153;BME280;56261;51.580;4.578;2023-04-21T04:15:28;101385.03;;;7.04;100.00
69153;BME280;56261;51.580;4.578;2023-04-21T04:17:53;101394.13;;;7.11;100.00
69153;BME280;56261;51.580;4.578;2023-04-21T04:20:19;101393.28;;;7.11;100.00
69153;BME280;56261;51.580;4.578;2023-04-21T04:22:44;101393.69;;;7.06;100.00
69153;BME280;56261;51.580;4.578;2023-04-21T04:25:09;101389.50;;;7.03;100.00
69153;BME280;56261;51.580;4.578;2023-04-21T04:27:37;101396.47;;;7.04;100.00
69153;BME280;56261;51.580;4.578;2023-04-21T04:30:03;101387.00;;;7.12;100.00
69153;BME280;56261;51.580;4.578;2023-04-21T04:32:28;101393.59;;;7.17;100.00
69153;BME280;56261;51.580;4.578;2023-04-21T04:34:54;101389.25;;;7.16;100.00
69153;BME280;56261;51.580;4.578;2023-04-21T04:37:23;101383.94;;;7.16;100.00
69153;BME280;56261;51.580;4.578;2023-04-21T04:39:52;101371.25;;;7.10;100.00
69153;BME280;56261;51.580;4.578;2023-04-21T04:42:17;101375.03;;;7.17;100.00
69153;BME280;56261;51.580;4.578;2023-04-21T04:44:44;101367.31;;;7.14;100.00
69153;BME280;56261;51.580;4.578;2023-04-21T04:47:10;101371.97;;;7.22;100.00
69153;BME280;56261;51.580;4.578;2023-04-21T04:49:36;101379.34;;;7.18;100.00
69153;BME280;56261;51.580;4.578;2023-04-21T04:52:02;101370.84;;;7.24;100.00
69153;BME280;56261;51.580;4.578;2023-04-21T04:54:28;101368.50;;;7.21;100.00
69153;BME280;56261;51.580;4.578;2023-04-21T04:56:53;101383.41;;;7.13;100.00
69153;BME280;56261;51.580;4.578;2023-04-21T04:59:19;101388.53;;;7.14;100.00
69153;BME280;56261;51.580;4.578;2023-04-21T05:01:45;101384.81;;;7.17;100.00
69153;BME280;56261;51.580;4.578;2023-04-21T05:04:10;101367.91;;;7.18;100.00
69153;BME280;56261;51.580;4.578;2023-04-21T05:06:35;101390.53;;;7.22;100.00
69153;BME280;56261;51.580;4.578;2023-04-21T05:09:01;101399.16;;;7.14;100.00
69153;BME280;56261;51.580;4.578;2023-04-21T05:11:28;101385.66;;;7.17;100.00
69153;BME280;56261;51.580;4.578;2023-04-21T05:13:54;101387.59;;;7.15;100.00
69153;BME280;56261;51.580;4.578;2023-04-21T05:16:19;101398.94;;;7.27;100.00
69153;BME280;56261;51.580;4.578;2023-04-21T05:18:45;101399.75;;;7.27;100.00
69153;BME280;56261;51.580;4.578;2023-04-21T05:21:10;101395.03;;;7.31;100.00
69153;BME280;56261;51.580;4.578;2023-04-21T05:23:36;101391.03;;;7.37;100.00
69153;BME280;56261;51.580;4.578;2023-04-21T05:26:01;101402.06;;;7.42;100.00
69153;BME280;56261;51.580;4.578;2023-04-21T05:28:26;101402.19;;;7.40;100.00
69153;BME280;56261;51.580;4.578;2023-04-21T05:30:54;101399.66;;;7.39;100.00
69153;BME280;56261;51.580;4.578;2023-04-21T05:33:19;101404.56;;;7.43;100.00
69153;BME280;56261;51.580;4.578;2023-04-21T05:35:45;101410.44;;;7.47;100.00
69153;BME280;56261;51.580;4.578;2023-04-21T05:38:11;101410.44;;;7.47;100.00
69153;BME280;56261;51.580;4.578;2023-04-21T05:40:36;101412.41;;;7.45;100.00
69153;BME280;56261;51.580;4.578;2023-04-21T05:43:02;101391.44;;;7.42;100.00
69153;BME280;56261;51.580;4.578;2023-04-21T05:45:27;101411.03;;;7.51;100.00
69153;BME280;56261;51.580;4.578;2023-04-21T05:47:53;101411.44;;;7.56;100.00
69153;BME280;56261;51.580;4.578;2023-04-21T05:50:18;101414.81;;;7.67;100.00
69153;BME280;56261;51.580;4.578;2023-04-21T05:52:44;101416.78;;;7.65;100.00
69153;BME280;56261;51.580;4.578;2023-04-21T05:55:09;101425.72;;;7.64;100.00
69153;BME280;56261;51.580;4.578;2023-04-21T05:57:34;101411.50;;;7.75;100.00
69153;BME280;56261;51.580;4.578;2023-04-21T06:00:00;101421.31;;;7.84;100.00
69153;BME280;56261;51.580;4.578;2023-04-21T06:02:25;101414.00;;;7.77;100.00
69153;BME280;56261;51.580;4.578;2023-04-21T06:04:50;101423.66;;;7.78;100.00
69153;BME280;56261;51.580;4.578;2023-04-21T06:07:16;101417.78;;;7.74;100.00
69153;BME280;56261;51.580;4.578;2023-04-21T06:09:42;101424.78;;;7.75;100.00
69153;BME280;56261;51.580;4.578;2023-04-21T06:12:07;101424.09;;;7.83;100.00
69153;BME280;56261;51.580;4.578;2023-04-21T06:14:33;101421.00;;;7.78;100.00
69153;BME280;56261;51.580;4.578;2023-04-21T06:16:58;101425.78;;;7.94;100.00
69153;BME280;56261;51.580;4.578;2023-04-21T06:19:24;101414.56;;;7.80;100.00
69153;BME280;56261;51.580;4.578;2023-04-21T06:21:49;101418.06;;;7.71;100.00
69153;BME280;56261;51.580;4.578;2023-04-21T06:24:15;101419.75;;;8.01;100.00
69153;BME280;56261;51.580;4.578;2023-04-21T06:26:41;101421.16;;;8.05;100.00
69153;BME280;56261;51.580;4.578;2023-04-21T06:29:06;101423.72;;;8.26;100.00
69153;BME280;56261;51.580;4.578;2023-04-21T06:31:31;101419.25;;;8.17;100.00
69153;BME280;56261;51.580;4.578;2023-04-21T06:33:57;101425.78;;;8.23;100.00
69153;BME280;56261;51.580;4.578;2023-04-21T06:36:22;101425.66;;;8.24;100.00
69153;BME280;56261;51.580;4.578;2023-04-21T06:38:48;101415.88;;;8.25;100.00
69153;BME280;56261;51.580;4.578;2023-04-21T06:41:13;101417.97;;;8.31;100.00
69153;BME280;56261;51.580;4.578;2023-04-21T06:43:39;101422.56;;;8.39;100.00
69153;BME280;56261;51.580;4.578;2023-04-21T06:46:04;101416.22;;;8.88;100.00
69153;BME280;56261;51.580;4.578;2023-04-21T06:48:30;101421.66;;;8.97;100.00
69153;BME280;56261;51.580;4.578;2023-04-21T06:50:56;101424.00;;;9.00;100.00
69153;BME280;56261;51.580;4.578;2023-04-21T06:53:21;101436.13;;;8.75;100.00
69153;BME280;56261;51.580;4.578;2023-04-21T06:55:47;101443.72;;;8.60;100.00
69153;BME280;56261;51.580;4.578;2023-04-21T06:58:13;101430.63;;;8.96;100.00
69153;BME280;56261;51.580;4.578;2023-04-21T07:00:38;101428.66;;;9.35;100.00
69153;BME280;56261;51.580;4.578;2023-04-21T07:03:04;101437.31;;;9.37;100.00
69153;BME280;56261;51.580;4.578;2023-04-21T07:05:30;101429.03;;;9.12;100.00
69153;BME280;56261;51.580;4.578;2023-04-21T07:07:56;101430.38;;;9.54;100.00
69153;BME280;56261;51.580;4.578;2023-04-21T07:10:25;101431.19;;;9.82;100.00
69153;BME280;56261;51.580;4.578;2023-04-21T07:12:53;101423.38;;;9.81;100.00
69153;BME280;56261;51.580;4.578;2023-04-21T07:15:19;101429.63;;;9.62;100.00
69153;BME280;56261;51.580;4.578;2023-04-21T07:17:44;101432.25;;;9.71;100.00
69153;BME280;56261;51.580;4.578;2023-04-21T07:20:10;101430.56;;;10.16;100.00
69153;BME280;56261;51.580;4.578;2023-04-21T07:22:35;101419.47;;;10.91;100.00
69153;BME280;56261;51.580;4.578;2023-04-21T07:25:02;101422.19;;;11.33;100.00
69153;BME280;56261;51.580;4.578;2023-04-21T07:27:31;101427.47;;;9.93;100.00
69153;BME280;56261;51.580;4.578;2023-04-21T07:29:56;101426.50;;;10.66;100.00
69153;BME280;56261;51.580;4.578;2023-04-21T07:32:22;101424.66;;;10.92;100.00
69153;BME280;56261;51.580;4.578;2023-04-21T07:34:47;101423.13;;;10.64;100.00
69153;BME280;56261;51.580;4.578;2023-04-21T07:37:13;101428.78;;;10.07;100.00
69153;BME280;56261;51.580;4.578;2023-04-21T07:39:39;101432.94;;;10.37;100.00
69153;BME280;56261;51.580;4.578;2023-04-21T07:42:04;101434.06;;;10.52;100.00
69153;BME280;56261;51.580;4.578;2023-04-21T07:44:32;101431.38;;;10.52;100.00
69153;BME280;56261;51.580;4.578;2023-04-21T07:46:58;101432.81;;;10.47;100.00
69153;BME280;56261;51.580;4.578;2023-04-21T07:49:23;101432.53;;;10.76;100.00
69153;BME280;56261;51.580;4.578;2023-04-21T07:51:49;101433.31;;;11.20;100.00
69153;BME280;56261;51.580;4.578;2023-04-21T07:54:14;101437.25;;;11.08;100.00
69153;BME280;56261;51.580;4.578;2023-04-21T07:56:39;101441.19;;;10.70;100.00
69153;BME280;56261;51.580;4.578;2023-04-21T07:59:05;101451.34;;;10.92;100.00
69153;BME280;56261;51.580;4.578;2023-04-21T08:01:30;101445.16;;;11.52;100.00
69153;BME280;56261;51.580;4.578;2023-04-21T08:03:56;101438.09;;;11.86;100.00
69153;BME280;56261;51.580;4.578;2023-04-21T08:06:21;101435.44;;;11.94;100.00
69153;BME280;56261;51.580;4.578;2023-04-21T08:08:46;101441.50;;;12.04;100.00
69153;BME280;56261;51.580;4.578;2023-04-21T08:11:12;101439.63;;;11.96;100.00
69153;BME280;56261;51.580;4.578;2023-04-21T08:13:37;101432.16;;;12.49;100.00
69153;BME280;56261;51.580;4.578;2023-04-21T08:16:03;101438.19;;;12.35;100.00
69153;BME280;56261;51.580;4.578;2023-04-21T08:18:29;101431.63;;;12.21;100.00
69153;BME280;56261;51.580;4.578;2023-04-21T08:20:55;101439.34;;;12.32;100.00
69153;BME280;56261;51.580;4.578;2023-04-21T08:23:22;101431.72;;;13.09;100.00
69153;BME280;56261;51.580;4.578;2023-04-21T08:25:47;101431.16;;;12.50;100.00
69153;BME280;56261;51.580;4.578;2023-04-21T08:28:13;101439.50;;;12.72;100.00
69153;BME280;56261;51.580;4.578;2023-04-21T08:30:40;101427.84;;;11.73;100.00
69153;BME280;56261;51.580;4.578;2023-04-21T08:33:06;101441.38;;;12.30;100.00
69153;BME280;56261;51.580;4.578;2023-04-21T08:35:32;101438.28;;;12.99;100.00
69153;BME280;56261;51.580;4.578;2023-04-21T08:37:58;101440.19;;;12.49;100.00
69153;BME280;56261;51.580;4.578;2023-04-21T08:40:31;101449.03;;;12.33;100.00
69153;BME280;56261;51.580;4.578;2023-04-21T08:42:57;101431.41;;;11.81;100.00
69153;BME280;56261;51.580;4.578;2023-04-21T08:45:23;101439.31;;;12.08;100.00
69153;BME280;56261;51.580;4.578;2023-04-21T08:47:48;101433.81;;;12.66;100.00
69153;BME280;56261;51.580;4.578;2023-04-21T08:50:14;101429.97;;;12.77;100.00
69153;BME280;56261;51.580;4.578;2023-04-21T08:52:40;101425.03;;;13.61;100.00
69153;BME280;56261;51.580;4.578;2023-04-21T08:55:06;101436.31;;;12.43;100.00
69153;BME280;56261;51.580;4.578;2023-04-21T08:57:32;101427.28;;;11.95;100.00
69153;BME280;56261;51.580;4.578;2023-04-21T08:59:57;101421.41;;;11.49;100.00
69153;BME280;56261;51.580;4.578;2023-04-21T09:02:23;101425.47;;;12.53;100.00
69153;BME280;56261;51.580;4.578;2023-04-21T09:04:49;101419.22;;;12.85;100.00
69153;BME280;56261;51.580;4.578;2023-04-21T09:07:33;101413.31;;;13.62;100.00
69153;BME280;56261;51.580;4.578;2023-04-21T09:10:00;101421.22;;;12.92;100.00
69153;BME280;56261;51.580;4.578;2023-04-21T09:12:25;101419.94;;;12.79;100.00
69153;BME280;56261;51.580;4.578;2023-04-21T09:14:52;101407.25;;;12.49;100.00
69153;BME280;56261;51.580;4.578;2023-04-21T09:17:23;101402.47;;;13.00;100.00
69153;BME280;56261;51.580;4.578;2023-04-21T09:19:52;101407.78;;;13.16;100.00
69153;BME280;56261;51.580;4.578;2023-04-21T09:22:17;101413.28;;;13.23;100.00
69153;BME280;56261;51.580;4.578;2023-04-21T09:24:47;101404.34;;;13.47;100.00
69153;BME280;56261;51.580;4.578;2023-04-21T09:27:14;101398.56;;;13.89;100.00
69153;BME280;56261;51.580;4.578;2023-04-21T09:29:45;101404.06;;;13.34;100.00
69153;BME280;56261;51.580;4.578;2023-04-21T09:32:15;101408.63;;;14.10;100.00
69153;BME280;56261;51.580;4.578;2023-04-21T09:34:41;101404.88;;;14.20;100.00
69153;BME280;56261;51.580;4.578;2023-04-21T09:37:10;101398.50;;;14.21;100.00
69153;BME280;56261;51.580;4.578;2023-04-21T09:39:35;101410.81;;;14.53;100.00
69153;BME280;56261;51.580;4.578;2023-04-21T09:42:01;101407.44;;;14.59;100.00
69153;BME280;56261;51.580;4.578;2023-04-21T09:44:27;101414.94;;;14.41;100.00
69153;BME280;56261;51.580;4.578;2023-04-21T09:47:00;101405.41;;;14.15;100.00
69153;BME280;56261;51.580;4.578;2023-04-21T09:49:30;101408.00;;;14.46;100.00
69153;BME280;56261;51.580;4.578;2023-04-21T09:51:58;101410.53;;;14.48;100.00
69153;BME280;56261;51.580;4.578;2023-04-21T09:54:31;101396.97;;;14.03;100.00
69153;BME280;56261;51.580;4.578;2023-04-21T09:56:58;101406.81;;;14.87;100.00
69153;BME280;56261;51.580;4.578;2023-04-21T09:59:31;101398.50;;;14.97;100.00
69153;BME280;56261;51.580;4.578;2023-04-21T10:01:59;101405.81;;;15.18;100.00
69153;BME280;56261;51.580;4.578;2023-04-21T10:04:27;101397.94;;;15.16;100.00
69153;BME280;56261;51.580;4.578;2023-04-21T10:06:54;101398.78;;;15.17;100.00
69153;BME280;56261;51.580;4.578;2023-04-21T10:09:21;101400.44;;;15.18;100.00
69153;BME280;56261;51.580;4.578;2023-04-21T10:11:47;101399.50;;;15.10;100.00
69153;BME280;56261;51.580;4.578;2023-04-21T10:14:13;101389.31;;;14.91;100.00
69153;BME280;56261;51.580;4.578;2023-04-21T10:16:38;101388.22;;;14.85;100.00
69153;BME280;56261;51.580;4.578;2023-04-21T10:19:23;101390.16;;;14.39;100.00
69153;BME280;56261;51.580;4.578;2023-04-21T10:21:50;101382.16;;;14.68;100.00
69153;BME280;56261;51.580;4.578;2023-04-21T10:24:15;101377.09;;;15.03;100.00
69153;BME280;56261;51.580;4.578;2023-04-21T10:26:41;101366.72;;;15.51;100.00
69153;BME280;56261;51.580;4.578;2023-04-21T10:29:07;101382.28;;;14.90;100.00
69153;BME280;56261;51.580;4.578;2023-04-21T10:36:31;101367.91;;;15.12;100.00
69153;BME280;56261;51.580;4.578;2023-04-21T10:39:02;101364.97;;;14.63;100.00
69153;BME280;56261;51.580;4.578;2023-04-21T10:41:32;101363.47;;;14.75;100.00
69153;BME280;56261;51.580;4.578;2023-04-21T10:44:10;101352.19;;;15.46;100.00
69153;BME280;56261;51.580;4.578;2023-04-21T10:46:38;101355.47;;;15.77;100.00
69153;BME280;56261;51.580;4.578;2023-04-21T10:49:08;101358.22;;;15.11;100.00
69153;BME280;56261;51.580;4.578;2023-04-21T10:57:15;101338.53;;;15.11;100.00
69153;BME280;56261;51.580;4.578;2023-04-21T10:59:40;101333.56;;;15.44;100.00
69153;BME280;56261;51.580;4.578;2023-04-21T11:02:07;101334.59;;;15.43;100.00
69153;BME280;56261;51.580;4.578;2023-04-21T11:04:35;101333.38;;;15.82;100.00
69153;BME280;56261;51.580;4.578;2023-04-21T11:07:13;101329.41;;;15.78;100.00
69153;BME280;56261;51.580;4.578;2023-04-21T11:09:40;101322.75;;;15.95;100.00
69153;BME280;56261;51.580;4.578;2023-04-21T11:12:13;101333.91;;;15.92;100.00
69153;BME280;56261;51.580;4.578;2023-04-21T11:14:40;101326.81;;;16.13;100.00
69153;BME280;56261;51.580;4.578;2023-04-21T11:17:11;101325.50;;;16.58;100.00
69153;BME280;56261;51.580;4.578;2023-04-21T11:19:38;101305.09;;;16.43;100.00
69153;BME280;56261;51.580;4.578;2023-04-21T11:22:04;101305.66;;;16.66;100.00
69153;BME280;56261;51.580;4.578;2023-04-21T11:24:30;101304.06;;;16.15;100.00
69153;BME280;56261;51.580;4.578;2023-04-21T11:26:56;101304.38;;;16.62;100.00
69153;BME280;56261;51.580;4.578;2023-04-21T11:29:22;101288.75;;;16.79;100.00
69153;BME280;56261;51.580;4.578;2023-04-21T11:31:48;101303.63;;;16.40;100.00
69153;BME280;56261;51.580;4.578;2023-04-21T11:34:15;101299.19;;;16.60;100.00
69153;BME280;56261;51.580;4.578;2023-04-21T11:36:44;101284.22;;;16.79;100.00
69153;BME280;56261;51.580;4.578;2023-04-21T11:39:12;101280.34;;;16.60;100.00
69153;BME280;56261;51.580;4.578;2023-04-21T11:41:39;101278.94;;;16.71;100.00
69153;BME280;56261;51.580;4.578;2023-04-21T11:44:09;101274.56;;;16.29;100.00
69153;BME280;56261;51.580;4.578;2023-04-21T11:46:35;101268.28;;;15.93;100.00
69153;BME280;56261;51.580;4.578;2023-04-21T11:49:05;101271.28;;;16.05;100.00
69153;BME280;56261;51.580;4.578;2023-04-21T11:54:01;101257.91;;;16.18;100.00
69153;BME280;56261;51.580;4.578;2023-04-21T11:56:28;101256.75;;;16.28;100.00
69153;BME280;56261;51.580;4.578;2023-04-21T11:58:54;101245.97;;;16.63;100.00
69153;BME280;56261;51.580;4.578;2023-04-21T12:01:20;101251.72;;;16.94;100.00
69153;BME280;56261;51.580;4.578;2023-04-21T12:03:54;101244.50;;;17.01;100.00
69153;BME280;56261;51.580;4.578;2023-04-21T12:06:23;101250.31;;;17.05;100.00
69153;BME280;56261;51.580;4.578;2023-04-21T12:08:54;101235.41;;;16.61;100.00
69153;BME280;56261;51.580;4.578;2023-04-21T12:11:21;101242.47;;;16.69;100.00
69153;BME280;56261;51.580;4.578;2023-04-21T12:13:47;101236.94;;;16.07;100.00
69153;BME280;56261;51.580;4.578;2023-04-21T12:16:12;101239.88;;;16.47;100.00
69153;BME280;56261;51.580;4.578;2023-04-21T12:18:37;101232.16;;;16.72;100.00
69153;BME280;56261;51.580;4.578;2023-04-21T12:21:03;101224.47;;;17.37;100.00
69153;BME280;56261;51.580;4.578;2023-04-21T12:23:28;101230.09;;;17.62;100.00
69153;BME280;56261;51.580;4.578;2023-04-21T12:25:54;101234.66;;;17.42;100.00
69153;BME280;56261;51.580;4.578;2023-04-21T12:28:19;101224.38;;;16.91;100.00
69153;BME280;56261;51.580;4.578;2023-04-21T12:30:45;101218.44;;;17.29;100.00
69153;BME280;56261;51.580;4.578;2023-04-21T12:33:11;101216.56;;;17.22;100.00
69153;BME280;56261;51.580;4.578;2023-04-21T12:35:37;101228.81;;;16.70;100.00
69153;BME280;56261;51.580;4.578;2023-04-21T12:38:03;101229.69;;;16.43;100.00
69153;BME280;56261;51.580;4.578;2023-04-21T12:40:29;101227.34;;;16.61;100.00
69153;BME280;56261;51.580;4.578;2023-04-21T12:42:54;101226.06;;;17.05;100.00
69153;BME280;56261;51.580;4.578;2023-04-21T12:45:19;101221.06;;;16.95;100.00
69153;BME280;56261;51.580;4.578;2023-04-21T12:47:45;101213.84;;;16.54;100.00
69153;BME280;56261;51.580;4.578;2023-04-21T12:50:10;101206.78;;;17.01;100.00
69153;BME280;56261;51.580;4.578;2023-04-21T12:52:36;101208.53;;;17.89;100.00
69153;BME280;56261;51.580;4.578;2023-04-21T12:55:02;101222.84;;;17.90;100.00